»·PEaware :: N582WD KBUR-KSBA

N582WD :: KBUR-KSBA

FLIGHT INFORMATION

Flight Status: Arrived
Operator: Privately registered:
United States
More flights under this callsign
Pilot: Erik B. (9150)
Aircraft: ECLIPSE 500
(EA50)
More flights by this aircraft type
Origin: KBUR Bob Hope-Burbank
United States
Destination: KSBA Santa Barbara Mun
United States
More flights between these airports :: More routes between these airports
Route: +KBUR FIM V186 DEANO V27 KWANG KSBA
File this flight plan on PilotEdge
Remarks:
Altitude:
(Current/Filed)
8,000ft
Speed:
(Current/Filed)
250kts
Departed: 02-Sep-18 07:24 AM
Arrived: 02-Sep-18 07:56 AM
Distance/Time
Traveled:
75nm/0:32
Distance/Time
To Go:
Arrived

Flight Plot

Page will automatically refresh every two minutes.

Flight plan parsing failed; only flown route is shown


Map Options




Map Legend


Flown Route
Filed Route
Departure Airport
Arrival Airport
Navaid (VOR, NDB)
Fix

Horizontal Profiles

Position Reports

Time Latitude Longitude Heading Altitude Ground
Speed
02-Sep-18 07:06 34.200203 -118.358746 263 720ft 0kts
02-Sep-18 07:07 34.200203 -118.358746 263 720ft 0kts
02-Sep-18 07:08 34.200203 -118.358746 263 720ft 0kts
02-Sep-18 07:09 34.200203 -118.358746 263 720ft 0kts
02-Sep-18 07:10 34.200203 -118.358746 263 720ft 0kts
02-Sep-18 07:11 34.200203 -118.358746 263 720ft 0kts
02-Sep-18 07:12 34.200203 -118.358746 263 720ft 0kts
02-Sep-18 07:13 34.200203 -118.358746 263 720ft 0kts
02-Sep-18 07:14 34.200203 -118.358746 263 720ft 0kts
02-Sep-18 07:15 34.200203 -118.358746 263 720ft 0kts
02-Sep-18 07:16 34.200203 -118.358746 263 720ft 0kts
02-Sep-18 07:17 34.200203 -118.358746 263 720ft 0kts
02-Sep-18 07:18 34.200203 -118.358746 263 720ft 0kts
02-Sep-18 07:19 34.200203 -118.358746 263 720ft 0kts
02-Sep-18 07:20 34.200181 -118.358842 241 720ft 0kts
02-Sep-18 07:21 34.200842 -118.358435 346 722ft 16kts
02-Sep-18 07:22 34.206208 -118.359925 347 742ft 17kts
02-Sep-18 07:23 34.210230 -118.361040 347 763ft 14kts
02-Sep-18 07:24 34.212059 -118.361376 33 768ft 0kts
02-Sep-18 07:25 34.212086 -118.361354 33 768ft 2kts
02-Sep-18 07:26 34.209478 -118.359672 166 758ft 59kts
02-Sep-18 07:27 34.179203 -118.356017 211 1845ft 140kts
02-Sep-18 07:28 34.150515 -118.392856 249 3878ft 166kts
02-Sep-18 07:29 34.155010 -118.451917 280 5706ft 209kts
02-Sep-18 07:30 34.166174 -118.524333 280 5996ft 219kts
02-Sep-18 07:31 34.178020 -118.603141 280 5996ft 245kts
02-Sep-18 07:32 34.189766 -118.682337 279 5993ft 245kts
02-Sep-18 07:33 34.201634 -118.763053 279 5992ft 245kts
02-Sep-18 07:34 34.213322 -118.843071 278 5990ft 243kts
02-Sep-18 07:35 34.224985 -118.923521 279 5992ft 244kts
02-Sep-18 07:36 34.236346 -119.002020 279 5990ft 238kts
02-Sep-18 07:37 34.247686 -119.080816 279 5989ft 237kts
02-Sep-18 07:37 34.257058 -119.146337 280 5987ft 237kts
02-Sep-18 07:38 34.268349 -119.225460 280 5983ft 239kts
02-Sep-18 07:39 34.279608 -119.304647 280 6001ft 240kts
02-Sep-18 07:41 34.292238 -119.393986 280 6210ft 241kts
02-Sep-18 07:41 34.301591 -119.460447 280 5397ft 238kts
02-Sep-18 07:42 34.318045 -119.536851 293 3812ft 231kts
02-Sep-18 07:43 34.342998 -119.607725 293 3488ft 232kts
02-Sep-18 07:44 34.367958 -119.679355 282 3493ft 232kts
02-Sep-18 07:45 34.360560 -119.757204 262 3970ft 234kts
02-Sep-18 07:46 34.351609 -119.835258 262 4000ft 234kts
02-Sep-18 07:47 34.342664 -119.913388 262 3999ft 233kts
02-Sep-18 07:48 34.333759 -119.991331 262 4000ft 234kts
02-Sep-18 07:49 34.325595 -120.069122 275 3999ft 233kts
02-Sep-18 07:50 34.377632 -120.098975 352 4006ft 205kts
02-Sep-18 07:51 34.424948 -120.085965 76 3536ft 200kts
02-Sep-18 07:52 34.424427 -120.023232 89 2089ft 177kts
02-Sep-18 07:53 34.424991 -119.975581 88 1944ft 127kts
02-Sep-18 07:54 34.425833 -119.933256 88 1312ft 123kts
02-Sep-18 07:55 34.426697 -119.892712 88 667ft 109kts
02-Sep-18 07:56 34.427428 -119.858381 88 119ft 101kts
02-Sep-18 07:57 34.428105 -119.838873 19 12ft 5kts
02-Sep-18 07:58 34.430188 -119.839412 346 13ft 9kts
02-Sep-18 07:59 34.431694 -119.836437 70 13ft 13kts
02-Sep-18 08:00 34.432809 -119.836105 57 13ft 3kts
02-Sep-18 08:01 34.432844 -119.835997 69 13ft 0kts

Navigation Log

Ident Type
Flight plan parsing failed, navigation log unavailable